Silver Hill, Maryland
Current Conditions -  °F | °C
As of 12:58 PM on Sunday 23 Nov 2014 (Local Time) from KADW Reporting Station
Few Clouds Few Clouds  
Wind Chill: 55°   Ceiling: Unl
Heat Index: 55°   Visibility: 10mi
Dew Point: 26°   Wind: 9mph
Humidity: 33%   Direction: 210°SSW
Pressure: 30.14"   Gusts: NA
Location:  38.8377°N, 76.9193°W
Report Text: KADW 231758Z AUTO 21008KT 10SM FEW200 13/M03 A3014 RMK AO2 SLP214 T01271032 10127 20032 57022 $
Loading
Personal Weather Stations






























Interactive Weather Map New forecast layout! Learn more

10-Day Weather Forecast

Advertisements
Track Severe Weather on mobile